LNI971 WARR-WIDD
Flight info
| Callsign | LNI971 |
|---|---|
| Flight time | 2h 2m |
| Altitude | 34000 |
| Route | RAMPY M635 SURGA T23 UGEBO |
| Aircraft | B738/M-SDE2E3FGHIRWXY/LB1 |
Departure
| Time | 2026-05-09 08:21 |
|---|---|
| Airport | Juanda International Airport (WARR) |
Arrival
| Time | 2026-05-09 10:24 |
|---|---|
| Airport | Hang Nadim International Airport (WIDD) |
| Time | Latitude | Longitude | Altitude | Speed | Heading |
|---|---|---|---|---|---|
| 2026-05-09 07:52 | -7.37537 | 112.79179 | 17 ft | 0 kts | 9° |
| 2026-05-09 08:09 | -7.37547 | 112.79178 | 17 ft | 4 kts | 4° |
| 2026-05-09 08:09 | -7.37572 | 112.79181 | 19 ft | 4 kts | 327° |
| 2026-05-09 08:10 | -7.37586 | 112.79199 | 19 ft | 3 kts | 281° |
| 2026-05-09 08:10 | -7.37586 | 112.79201 | 19 ft | 1 kts | 279° |
| 2026-05-09 08:14 | -7.37586 | 112.79193 | 20 ft | 3 kts | 272° |
| 2026-05-09 08:14 | -7.37597 | 112.79161 | 18 ft | 6 kts | 234° |
| 2026-05-09 08:15 | -7.37629 | 112.79121 | 17 ft | 10 kts | 239° |
| 2026-05-09 08:15 | -7.37631 | 112.79075 | 20 ft | 9 kts | 301° |
| 2026-05-09 08:15 | -7.37604 | 112.78976 | 19 ft | 16 kts | 276° |
| 2026-05-09 08:15 | -7.37649 | 112.78903 | 20 ft | 11 kts | 188° |
| 2026-05-09 08:16 | -7.37767 | 112.78885 | 19 ft | 16 kts | 188° |
| 2026-05-09 08:16 | -7.37825 | 112.78802 | 17 ft | 16 kts | 273° |
| 2026-05-09 08:16 | -7.37812 | 112.78731 | 17 ft | 15 kts | 279° |
| 2026-05-09 08:16 | -7.37789 | 112.78593 | 20 ft | 15 kts | 279° |
| 2026-05-09 08:17 | -7.37779 | 112.78528 | 18 ft | 14 kts | 279° |
| 2026-05-09 08:17 | -7.37763 | 112.78432 | 18 ft | 13 kts | 279° |
| 2026-05-09 08:17 | -7.37744 | 112.78311 | 18 ft | 13 kts | 279° |
| 2026-05-09 08:17 | -7.37730 | 112.78223 | 18 ft | 13 kts | 279° |
| 2026-05-09 08:18 | -7.37715 | 112.78132 | 18 ft | 14 kts | 279° |
| 2026-05-09 08:18 | -7.37705 | 112.78060 | 21 ft | 17 kts | 277° |
| 2026-05-09 08:18 | -7.37674 | 112.77866 | 19 ft | 25 kts | 279° |
| 2026-05-09 08:18 | -7.37647 | 112.77690 | 20 ft | 23 kts | 279° |
| 2026-05-09 08:19 | -7.37622 | 112.77530 | 19 ft | 23 kts | 279° |
| 2026-05-09 08:19 | -7.37608 | 112.77429 | 19 ft | 19 kts | 260° |
| 2026-05-09 08:19 | -7.37712 | 112.77373 | 18 ft | 18 kts | 180° |
| 2026-05-09 08:19 | -7.37770 | 112.77396 | 20 ft | 3 kts | 115° |
| 2026-05-09 08:20 | -7.37780 | 112.77432 | 19 ft | 6 kts | 101° |
| 2026-05-09 08:20 | -7.37785 | 112.77459 | 19 ft | 0 kts | 99° |
| 2026-05-09 08:20 | -7.37786 | 112.77463 | 19 ft | 2 kts | 100° |
| 2026-05-09 08:20 | -7.37854 | 112.77882 | 20 ft | 100 kts | 99° |
| 2026-05-09 08:21 | -7.37946 | 112.78452 | 17 ft | 148 kts | 99° |
| 2026-05-09 08:21 | -7.38128 | 112.79661 | 240 ft | 193 kts | 98° |
| 2026-05-09 08:21 | -7.38299 | 112.80952 | 1521 ft | 170 kts | 97° |
| 2026-05-09 08:21 | -7.38513 | 112.82470 | 2762 ft | 176 kts | 99° |
| 2026-05-09 08:22 | -7.38654 | 112.83360 | 2838 ft | 204 kts | 98° |
| 2026-05-09 08:22 | -7.38865 | 112.84886 | 3080 ft | 230 kts | 97° |
| 2026-05-09 08:22 | -7.39157 | 112.87131 | 3536 ft | 260 kts | 100° |
| 2026-05-09 08:22 | -7.39389 | 112.88354 | 4025 ft | 265 kts | 101° |
| 2026-05-09 08:23 | -7.39748 | 112.90186 | 4864 ft | 268 kts | 101° |
| 2026-05-09 08:23 | -7.39869 | 112.92055 | 5662 ft | 272 kts | 78° |
| 2026-05-09 08:23 | -7.39080 | 112.93773 | 6472 ft | 273 kts | 55° |
| 2026-05-09 08:23 | -7.37950 | 112.95324 | 7283 ft | 277 kts | 52° |
| 2026-05-09 08:24 | -7.36770 | 112.96876 | 8047 ft | 280 kts | 52° |
| 2026-05-09 08:24 | -7.35577 | 112.98443 | 8817 ft | 284 kts | 52° |
| 2026-05-09 08:24 | -7.34377 | 113.00031 | 9579 ft | 287 kts | 52° |
| 2026-05-09 08:24 | -7.33166 | 113.01643 | 10328 ft | 290 kts | 53° |
| 2026-05-09 08:25 | -7.31920 | 113.03308 | 10703 ft | 309 kts | 53° |
| 2026-05-09 08:25 | -7.30579 | 113.05107 | 10891 ft | 332 kts | 53° |
| 2026-05-09 08:25 | -7.29165 | 113.07006 | 11295 ft | 345 kts | 53° |
| 2026-05-09 08:25 | -7.27710 | 113.08958 | 11949 ft | 350 kts | 52° |
| 2026-05-09 08:26 | -7.25968 | 113.10623 | 12634 ft | 353 kts | 32° |
| 2026-05-09 08:26 | -7.23683 | 113.11591 | 13353 ft | 354 kts | 14° |
| 2026-05-09 08:26 | -7.21313 | 113.12174 | 14023 ft | 358 kts | 12° |
| 2026-05-09 08:26 | -7.18864 | 113.12727 | 14655 ft | 362 kts | 12° |
| 2026-05-09 08:27 | -7.16392 | 113.13275 | 15300 ft | 366 kts | 12° |
| 2026-05-09 08:27 | -7.13900 | 113.13833 | 15938 ft | 369 kts | 12° |
| 2026-05-09 08:27 | -7.11382 | 113.14405 | 16558 ft | 372 kts | 12° |
| 2026-05-09 08:27 | -7.08846 | 113.14988 | 17136 ft | 376 kts | 12° |
| 2026-05-09 08:28 | -7.06284 | 113.15583 | 17735 ft | 379 kts | 13° |
| 2026-05-09 08:28 | -7.03701 | 113.16186 | 18319 ft | 382 kts | 13° |
| 2026-05-09 08:28 | -7.01101 | 113.16794 | 18871 ft | 386 kts | 13° |
| 2026-05-09 08:28 | -6.98471 | 113.17410 | 19411 ft | 389 kts | 13° |
| 2026-05-09 08:29 | -6.95823 | 113.18031 | 19943 ft | 392 kts | 13° |
| 2026-05-09 08:29 | -6.93153 | 113.18658 | 20472 ft | 395 kts | 13° |
| 2026-05-09 08:29 | -6.90462 | 113.19289 | 20949 ft | 399 kts | 13° |
| 2026-05-09 08:29 | -6.87765 | 113.19921 | 20973 ft | 397 kts | 13° |
| 2026-05-09 08:30 | -6.85068 | 113.20553 | 21001 ft | 399 kts | 13° |
| 2026-05-09 08:30 | -6.82362 | 113.21188 | 21003 ft | 400 kts | 13° |
| 2026-05-09 08:30 | -6.79659 | 113.21821 | 21003 ft | 399 kts | 13° |
| 2026-05-09 08:30 | -6.76952 | 113.22455 | 21003 ft | 399 kts | 13° |
| 2026-05-09 08:31 | -6.74249 | 113.23089 | 21003 ft | 399 kts | 13° |
| 2026-05-09 08:31 | -6.71545 | 113.23722 | 21002 ft | 399 kts | 13° |
| 2026-05-09 08:31 | -6.68844 | 113.24355 | 21002 ft | 399 kts | 13° |
| 2026-05-09 08:31 | -6.66139 | 113.24989 | 21002 ft | 399 kts | 13° |
| 2026-05-09 08:32 | -6.63439 | 113.25621 | 21002 ft | 399 kts | 13° |
| 2026-05-09 08:32 | -6.60736 | 113.26254 | 21002 ft | 399 kts | 13° |
| 2026-05-09 08:32 | -6.55327 | 113.27521 | 21001 ft | 399 kts | 13° |
| 2026-05-09 08:33 | -6.52623 | 113.28153 | 21001 ft | 399 kts | 13° |
| 2026-05-09 08:33 | -6.49923 | 113.28785 | 21015 ft | 401 kts | 13° |
| 2026-05-09 08:33 | -6.47174 | 113.29427 | 21315 ft | 407 kts | 13° |
| 2026-05-09 08:33 | -6.44429 | 113.30067 | 21929 ft | 405 kts | 13° |
| 2026-05-09 08:34 | -6.41676 | 113.30709 | 22477 ft | 406 kts | 13° |
| 2026-05-09 08:34 | -6.38915 | 113.31353 | 22919 ft | 409 kts | 13° |
| 2026-05-09 08:34 | -6.36123 | 113.32005 | 23326 ft | 413 kts | 13° |
| 2026-05-09 08:34 | -6.33315 | 113.32660 | 23747 ft | 416 kts | 13° |
| 2026-05-09 08:35 | -6.30489 | 113.33315 | 24170 ft | 418 kts | 11° |
| 2026-05-09 08:35 | -6.27588 | 113.33493 | 24526 ft | 421 kts | 352° |
| 2026-05-09 08:35 | -6.24786 | 113.32684 | 24926 ft | 422 kts | 334° |
| 2026-05-09 08:35 | -6.22331 | 113.31076 | 25315 ft | 423 kts | 316° |
| 2026-05-09 08:36 | -6.20390 | 113.28845 | 25687 ft | 425 kts | 308° |
| 2026-05-09 08:36 | -6.18578 | 113.26481 | 26032 ft | 428 kts | 307° |
| 2026-05-09 08:36 | -6.16806 | 113.24117 | 26353 ft | 431 kts | 307° |
| 2026-05-09 08:36 | -6.14979 | 113.21673 | 26699 ft | 433 kts | 307° |
| 2026-05-09 08:37 | -6.13170 | 113.19268 | 27198 ft | 430 kts | 307° |
| 2026-05-09 08:37 | -6.11370 | 113.16890 | 27389 ft | 436 kts | 307° |
| 2026-05-09 08:37 | -6.09515 | 113.14457 | 27608 ft | 441 kts | 307° |
| 2026-05-09 08:37 | -6.07642 | 113.12011 | 27920 ft | 442 kts | 307° |
| 2026-05-09 08:38 | -6.05761 | 113.09561 | 28257 ft | 443 kts | 307° |
| 2026-05-09 08:38 | -6.03875 | 113.07108 | 28561 ft | 445 kts | 307° |
| 2026-05-09 08:38 | -6.01978 | 113.04642 | 28831 ft | 447 kts | 307° |
| 2026-05-09 08:38 | -6.00069 | 113.02161 | 29099 ft | 450 kts | 307° |
| 2026-05-09 08:39 | -5.98152 | 112.99670 | 29369 ft | 451 kts | 307° |
| 2026-05-09 08:39 | -5.96230 | 112.97171 | 29631 ft | 453 kts | 307° |
| 2026-05-09 08:39 | -5.94298 | 112.94661 | 29884 ft | 455 kts | 307° |
| 2026-05-09 08:39 | -5.92359 | 112.92141 | 30128 ft | 457 kts | 307° |
| 2026-05-09 08:40 | -5.90414 | 112.89612 | 30360 ft | 458 kts | 307° |
| 2026-05-09 08:40 | -5.88460 | 112.87074 | 30589 ft | 460 kts | 307° |
| 2026-05-09 08:40 | -5.86500 | 112.84526 | 30832 ft | 461 kts | 307° |
| 2026-05-09 08:40 | -5.84540 | 112.81981 | 31150 ft | 460 kts | 307° |
| 2026-05-09 08:41 | -5.82587 | 112.79444 | 31499 ft | 458 kts | 307° |
| 2026-05-09 08:41 | -5.80639 | 112.76914 | 31810 ft | 457 kts | 307° |
| 2026-05-09 08:41 | -5.78694 | 112.74389 | 32074 ft | 457 kts | 307° |
| 2026-05-09 08:41 | -5.76748 | 112.71862 | 32337 ft | 457 kts | 307° |
| 2026-05-09 08:42 | -5.74802 | 112.69335 | 32584 ft | 458 kts | 307° |
| 2026-05-09 08:42 | -5.72854 | 112.66807 | 32832 ft | 457 kts | 307° |
| 2026-05-09 08:42 | -5.70913 | 112.64287 | 33181 ft | 455 kts | 307° |
| 2026-05-09 08:42 | -5.68978 | 112.61776 | 33474 ft | 454 kts | 307° |
| 2026-05-09 08:43 | -5.67048 | 112.59272 | 33702 ft | 454 kts | 307° |
| 2026-05-09 08:43 | -5.65115 | 112.56763 | 33910 ft | 454 kts | 307° |
| 2026-05-09 08:43 | -5.63179 | 112.54253 | 33993 ft | 457 kts | 307° |
| 2026-05-09 08:44 | -5.59272 | 112.49185 | 33999 ft | 458 kts | 307° |
| 2026-05-09 08:44 | -5.55398 | 112.44161 | 33992 ft | 452 kts | 307° |
| 2026-05-09 08:45 | -5.51555 | 112.39179 | 34004 ft | 451 kts | 307° |
| 2026-05-09 08:45 | -5.47718 | 112.34206 | 34000 ft | 450 kts | 307° |
| 2026-05-09 08:46 | -5.43888 | 112.29243 | 34001 ft | 450 kts | 307° |
| 2026-05-09 08:46 | -5.40054 | 112.24276 | 34002 ft | 450 kts | 307° |
| 2026-05-09 08:47 | -5.36218 | 112.19307 | 34002 ft | 450 kts | 307° |
| 2026-05-09 08:47 | -5.32383 | 112.14342 | 34002 ft | 450 kts | 307° |
| 2026-05-09 08:48 | -5.28521 | 112.09342 | 34013 ft | 457 kts | 307° |
| 2026-05-09 08:48 | -5.24596 | 112.04261 | 34008 ft | 464 kts | 307° |
| 2026-05-09 08:49 | -5.20637 | 111.99138 | 33999 ft | 465 kts | 308° |
| 2026-05-09 08:49 | -5.16668 | 111.94004 | 34001 ft | 466 kts | 308° |
| 2026-05-09 08:50 | -5.12703 | 111.88876 | 34000 ft | 465 kts | 308° |
| 2026-05-09 08:50 | -5.08738 | 111.83748 | 34000 ft | 465 kts | 308° |
| 2026-05-09 08:51 | -5.04781 | 111.78632 | 34001 ft | 464 kts | 308° |
| 2026-05-09 08:51 | -5.00825 | 111.73519 | 34001 ft | 463 kts | 308° |
| 2026-05-09 08:52 | -4.96906 | 111.68454 | 34001 ft | 463 kts | 308° |
| 2026-05-09 08:52 | -4.92964 | 111.63361 | 34001 ft | 462 kts | 308° |
| 2026-05-09 08:53 | -4.89019 | 111.58266 | 34001 ft | 462 kts | 308° |
| 2026-05-09 08:53 | -4.85078 | 111.53176 | 34001 ft | 462 kts | 308° |
| 2026-05-09 08:54 | -4.81143 | 111.48095 | 34001 ft | 462 kts | 308° |
| 2026-05-09 08:54 | -4.77204 | 111.43009 | 34001 ft | 462 kts | 308° |
| 2026-05-09 08:55 | -4.73263 | 111.37923 | 34001 ft | 462 kts | 308° |
| 2026-05-09 08:55 | -4.69324 | 111.32840 | 34001 ft | 462 kts | 308° |
| 2026-05-09 08:56 | -4.65387 | 111.27758 | 34001 ft | 462 kts | 308° |
| 2026-05-09 08:56 | -4.61451 | 111.22681 | 34001 ft | 462 kts | 308° |
| 2026-05-09 08:57 | -4.57520 | 111.17587 | 34000 ft | 462 kts | 307° |
| 2026-05-09 08:57 | -4.53600 | 111.12492 | 34000 ft | 462 kts | 307° |
| 2026-05-09 08:58 | -4.49677 | 111.07394 | 34001 ft | 462 kts | 307° |
| 2026-05-09 08:58 | -4.45753 | 111.02299 | 34000 ft | 462 kts | 307° |
| 2026-05-09 08:59 | -4.41830 | 110.97207 | 34001 ft | 462 kts | 307° |
| 2026-05-09 08:59 | -4.37904 | 110.92112 | 34001 ft | 462 kts | 307° |
| 2026-05-09 09:00 | -4.33980 | 110.87019 | 34001 ft | 462 kts | 307° |
| 2026-05-09 09:00 | -4.30052 | 110.81924 | 34001 ft | 462 kts | 307° |
| 2026-05-09 09:01 | -4.26125 | 110.76831 | 34001 ft | 462 kts | 307° |
| 2026-05-09 09:01 | -4.22226 | 110.71775 | 34001 ft | 462 kts | 307° |
| 2026-05-09 09:02 | -4.18273 | 110.66649 | 33999 ft | 462 kts | 307° |
| 2026-05-09 09:02 | -4.14372 | 110.61592 | 34001 ft | 462 kts | 307° |
| 2026-05-09 09:03 | -4.10446 | 110.56503 | 34001 ft | 462 kts | 307° |
| 2026-05-09 09:03 | -4.06516 | 110.51409 | 34001 ft | 462 kts | 307° |
| 2026-05-09 09:04 | -4.02587 | 110.46318 | 34001 ft | 462 kts | 307° |
| 2026-05-09 09:04 | -3.98657 | 110.41226 | 34001 ft | 462 kts | 307° |
| 2026-05-09 09:05 | -3.94694 | 110.36165 | 34000 ft | 462 kts | 309° |
| 2026-05-09 09:05 | -3.90509 | 110.31286 | 34002 ft | 462 kts | 311° |
| 2026-05-09 09:06 | -3.86273 | 110.26444 | 34001 ft | 462 kts | 311° |
| 2026-05-09 09:06 | -3.82064 | 110.21586 | 34001 ft | 462 kts | 310° |
| 2026-05-09 09:07 | -3.77873 | 110.16708 | 34001 ft | 462 kts | 310° |
| 2026-05-09 09:07 | -3.73691 | 110.11830 | 34001 ft | 462 kts | 310° |
| 2026-05-09 09:08 | -3.70209 | 110.07771 | 34001 ft | 462 kts | 310° |
| 2026-05-09 09:08 | -3.66025 | 110.02893 | 34001 ft | 462 kts | 310° |
| 2026-05-09 09:09 | -3.61838 | 109.98014 | 34001 ft | 462 kts | 310° |
| 2026-05-09 09:09 | -3.57649 | 109.93134 | 34001 ft | 462 kts | 310° |
| 2026-05-09 09:10 | -3.53459 | 109.88253 | 34001 ft | 462 kts | 310° |
| 2026-05-09 09:10 | -3.49271 | 109.83376 | 34001 ft | 462 kts | 310° |
| 2026-05-09 09:11 | -3.45084 | 109.78501 | 34001 ft | 462 kts | 310° |
| 2026-05-09 09:11 | -3.40896 | 109.73624 | 34001 ft | 462 kts | 310° |
| 2026-05-09 09:12 | -3.36703 | 109.68743 | 34001 ft | 462 kts | 310° |
| 2026-05-09 09:12 | -3.32514 | 109.63867 | 34001 ft | 462 kts | 310° |
| 2026-05-09 09:13 | -3.28326 | 109.58994 | 34001 ft | 462 kts | 310° |
| 2026-05-09 09:13 | -3.24136 | 109.54118 | 34001 ft | 462 kts | 310° |
| 2026-05-09 09:14 | -3.19943 | 109.49240 | 34001 ft | 462 kts | 310° |
| 2026-05-09 09:14 | -3.15755 | 109.44367 | 34001 ft | 462 kts | 310° |
| 2026-05-09 09:15 | -3.11591 | 109.39524 | 34001 ft | 462 kts | 310° |
| 2026-05-09 09:15 | -3.07404 | 109.34653 | 34001 ft | 462 kts | 310° |
| 2026-05-09 09:16 | -3.03210 | 109.29776 | 34001 ft | 462 kts | 310° |
| 2026-05-09 09:16 | -2.96925 | 109.22467 | 34001 ft | 462 kts | 310° |
| 2026-05-09 09:17 | -2.92731 | 109.17591 | 34001 ft | 462 kts | 310° |
| 2026-05-09 09:17 | -2.88540 | 109.12721 | 34001 ft | 462 kts | 310° |
| 2026-05-09 09:18 | -2.84334 | 109.07858 | 34001 ft | 462 kts | 310° |
| 2026-05-09 09:18 | -2.80130 | 109.03003 | 34001 ft | 462 kts | 310° |
| 2026-05-09 09:19 | -2.75920 | 108.98140 | 34001 ft | 462 kts | 310° |
| 2026-05-09 09:19 | -2.71717 | 108.93283 | 34001 ft | 462 kts | 310° |
| 2026-05-09 09:20 | -2.67511 | 108.88422 | 34001 ft | 462 kts | 310° |
| 2026-05-09 09:20 | -2.63304 | 108.83560 | 34001 ft | 462 kts | 310° |
| 2026-05-09 09:21 | -2.59101 | 108.78703 | 34001 ft | 462 kts | 310° |
| 2026-05-09 09:21 | -2.54893 | 108.73842 | 34001 ft | 462 kts | 310° |
| 2026-05-09 09:22 | -2.50687 | 108.68982 | 34001 ft | 462 kts | 310° |
| 2026-05-09 09:22 | -2.46484 | 108.64123 | 34001 ft | 462 kts | 310° |
| 2026-05-09 09:23 | -2.42286 | 108.59257 | 34001 ft | 462 kts | 310° |
| 2026-05-09 09:23 | -2.38089 | 108.54389 | 34001 ft | 462 kts | 310° |
| 2026-05-09 09:24 | -2.33892 | 108.49523 | 34001 ft | 462 kts | 310° |
| 2026-05-09 09:24 | -2.29695 | 108.44658 | 34001 ft | 462 kts | 310° |
| 2026-05-09 09:25 | -2.25494 | 108.39789 | 34001 ft | 462 kts | 310° |
| 2026-05-09 09:25 | -2.21297 | 108.34925 | 34001 ft | 462 kts | 310° |
| 2026-05-09 09:26 | -2.17100 | 108.30061 | 34001 ft | 462 kts | 310° |
| 2026-05-09 09:26 | -2.12928 | 108.25226 | 34001 ft | 462 kts | 310° |
| 2026-05-09 09:27 | -2.08732 | 108.20363 | 34001 ft | 462 kts | 310° |
| 2026-05-09 09:27 | -2.04531 | 108.15496 | 34001 ft | 462 kts | 310° |
| 2026-05-09 09:28 | -2.00337 | 108.10630 | 34001 ft | 462 kts | 310° |
| 2026-05-09 09:28 | -1.96142 | 108.05761 | 34001 ft | 462 kts | 310° |
| 2026-05-09 09:29 | -1.91947 | 108.00890 | 34001 ft | 462 kts | 310° |
| 2026-05-09 09:29 | -1.87753 | 107.96022 | 34001 ft | 462 kts | 310° |
| 2026-05-09 09:30 | -1.83559 | 107.91154 | 34001 ft | 462 kts | 310° |
| 2026-05-09 09:30 | -1.79365 | 107.86287 | 34001 ft | 462 kts | 310° |
| 2026-05-09 09:31 | -1.75170 | 107.81418 | 34001 ft | 462 kts | 310° |
| 2026-05-09 09:32 | -1.68878 | 107.74117 | 34001 ft | 462 kts | 310° |
| 2026-05-09 09:32 | -1.64682 | 107.69249 | 34001 ft | 462 kts | 310° |
| 2026-05-09 09:33 | -1.60487 | 107.64381 | 34001 ft | 462 kts | 310° |
| 2026-05-09 09:33 | -1.56294 | 107.59517 | 34001 ft | 462 kts | 310° |
| 2026-05-09 09:34 | -1.52098 | 107.54648 | 34001 ft | 462 kts | 310° |
| 2026-05-09 09:34 | -1.47902 | 107.49782 | 34001 ft | 462 kts | 310° |
| 2026-05-09 09:36 | -1.31040 | 107.30378 | 34001 ft | 462 kts | 311° |
| 2026-05-09 09:37 | -1.26763 | 107.25586 | 34001 ft | 462 kts | 311° |
| 2026-05-09 09:37 | -1.22489 | 107.20783 | 34001 ft | 462 kts | 311° |
| 2026-05-09 09:38 | -1.18224 | 107.15980 | 34001 ft | 462 kts | 311° |
| 2026-05-09 09:38 | -1.13958 | 107.11174 | 34001 ft | 462 kts | 311° |
| 2026-05-09 09:39 | -1.09693 | 107.06368 | 34001 ft | 462 kts | 311° |
| 2026-05-09 09:39 | -1.05455 | 107.01595 | 34001 ft | 462 kts | 311° |
| 2026-05-09 09:40 | -1.01187 | 106.96788 | 34001 ft | 462 kts | 311° |
| 2026-05-09 09:40 | -0.96921 | 106.91982 | 34001 ft | 462 kts | 311° |
| 2026-05-09 09:41 | -0.92656 | 106.87179 | 34001 ft | 462 kts | 311° |
| 2026-05-09 09:41 | -0.88388 | 106.82372 | 34001 ft | 462 kts | 311° |
| 2026-05-09 09:42 | -0.84122 | 106.77567 | 34001 ft | 462 kts | 311° |
| 2026-05-09 09:42 | -0.79853 | 106.72760 | 34001 ft | 462 kts | 311° |
| 2026-05-09 09:43 | -0.75589 | 106.67958 | 34001 ft | 462 kts | 311° |
| 2026-05-09 09:43 | -0.71322 | 106.63152 | 34001 ft | 462 kts | 311° |
| 2026-05-09 09:44 | -0.67055 | 106.58346 | 34001 ft | 462 kts | 311° |
| 2026-05-09 09:44 | -0.62790 | 106.53543 | 34001 ft | 462 kts | 311° |
| 2026-05-09 09:45 | -0.58238 | 106.49008 | 34008 ft | 462 kts | 318° |
| 2026-05-09 09:45 | -0.53393 | 106.44783 | 34000 ft | 462 kts | 319° |
| 2026-05-09 09:46 | -0.48541 | 106.40572 | 34002 ft | 462 kts | 319° |
| 2026-05-09 09:46 | -0.43744 | 106.36348 | 34001 ft | 462 kts | 318° |
| 2026-05-09 09:47 | -0.38904 | 106.32052 | 34001 ft | 462 kts | 318° |
| 2026-05-09 09:47 | -0.34099 | 106.27780 | 34001 ft | 462 kts | 318° |
| 2026-05-09 09:48 | -0.29293 | 106.23509 | 34001 ft | 462 kts | 318° |
| 2026-05-09 09:48 | -0.24485 | 106.19238 | 34001 ft | 462 kts | 318° |
| 2026-05-09 09:49 | -0.19677 | 106.14967 | 34001 ft | 462 kts | 318° |
| 2026-05-09 09:49 | -0.14868 | 106.10696 | 34001 ft | 462 kts | 318° |
| 2026-05-09 09:50 | -0.10093 | 106.06454 | 34001 ft | 462 kts | 318° |
| 2026-05-09 09:50 | -0.05287 | 106.02186 | 34001 ft | 462 kts | 318° |
| 2026-05-09 09:51 | -0.00479 | 105.97915 | 34001 ft | 462 kts | 318° |
| 2026-05-09 09:51 | 0.04330 | 105.93644 | 34001 ft | 462 kts | 318° |
| 2026-05-09 09:52 | 0.08360 | 105.90064 | 34001 ft | 462 kts | 318° |
| 2026-05-09 09:52 | 0.13133 | 105.85825 | 34001 ft | 462 kts | 318° |
| 2026-05-09 09:53 | 0.17939 | 105.81555 | 34001 ft | 462 kts | 318° |
| 2026-05-09 09:53 | 0.23561 | 105.76562 | 34001 ft | 462 kts | 318° |
| 2026-05-09 09:54 | 0.27556 | 105.73013 | 34001 ft | 462 kts | 318° |
| 2026-05-09 09:54 | 0.32363 | 105.68743 | 34001 ft | 462 kts | 318° |
| 2026-05-09 09:55 | 0.37172 | 105.64471 | 34001 ft | 462 kts | 318° |
| 2026-05-09 09:55 | 0.41980 | 105.60200 | 34001 ft | 462 kts | 318° |
| 2026-05-09 09:56 | 0.46784 | 105.55932 | 34001 ft | 462 kts | 318° |
| 2026-05-09 09:56 | 0.51592 | 105.51661 | 34001 ft | 462 kts | 318° |
| 2026-05-09 09:57 | 0.56400 | 105.47388 | 34001 ft | 462 kts | 318° |
| 2026-05-09 09:57 | 0.61208 | 105.43117 | 34001 ft | 462 kts | 318° |
| 2026-05-09 09:58 | 0.65657 | 105.38500 | 34003 ft | 462 kts | 307° |
| 2026-05-09 09:58 | 0.69480 | 105.33341 | 33996 ft | 462 kts | 306° |
| 2026-05-09 09:59 | 0.73271 | 105.28161 | 34000 ft | 462 kts | 306° |
| 2026-05-09 09:59 | 0.77097 | 105.22997 | 34001 ft | 462 kts | 306° |
| 2026-05-09 10:00 | 0.80942 | 105.17850 | 34001 ft | 462 kts | 307° |
| 2026-05-09 10:00 | 0.84793 | 105.12704 | 34001 ft | 462 kts | 307° |
| 2026-05-09 10:01 | 0.88642 | 105.07560 | 34001 ft | 462 kts | 307° |
| 2026-05-09 10:01 | 0.92491 | 105.02414 | 34001 ft | 462 kts | 307° |
| 2026-05-09 10:02 | 0.96343 | 104.97264 | 34001 ft | 462 kts | 307° |
| 2026-05-09 10:02 | 1.00163 | 104.92156 | 34001 ft | 462 kts | 307° |
| 2026-05-09 10:03 | 1.04014 | 104.87005 | 33910 ft | 464 kts | 307° |
| 2026-05-09 10:03 | 1.05960 | 104.84403 | 33275 ft | 468 kts | 307° |
| 2026-05-09 10:03 | 1.07905 | 104.81801 | 32562 ft | 466 kts | 307° |
| 2026-05-09 10:03 | 1.09844 | 104.79207 | 31813 ft | 466 kts | 307° |
| 2026-05-09 10:04 | 1.11782 | 104.76615 | 31033 ft | 467 kts | 307° |
| 2026-05-09 10:04 | 1.13730 | 104.74010 | 30220 ft | 468 kts | 307° |
| 2026-05-09 10:04 | 1.15678 | 104.71405 | 29374 ft | 469 kts | 307° |
| 2026-05-09 10:04 | 1.17629 | 104.68795 | 28473 ft | 470 kts | 307° |
| 2026-05-09 10:05 | 1.19590 | 104.66171 | 27535 ft | 471 kts | 307° |
| 2026-05-09 10:05 | 1.21542 | 104.63560 | 27038 ft | 463 kts | 307° |
| 2026-05-09 10:05 | 1.23431 | 104.61034 | 26950 ft | 445 kts | 307° |
| 2026-05-09 10:05 | 1.25251 | 104.58600 | 26859 ft | 430 kts | 307° |
| 2026-05-09 10:06 | 1.27010 | 104.56247 | 26740 ft | 415 kts | 307° |
| 2026-05-09 10:06 | 1.28718 | 104.53961 | 26398 ft | 408 kts | 307° |
| 2026-05-09 10:06 | 1.30413 | 104.51694 | 25884 ft | 406 kts | 307° |
| 2026-05-09 10:06 | 1.32102 | 104.49434 | 25334 ft | 405 kts | 307° |
| 2026-05-09 10:07 | 1.33782 | 104.47186 | 24827 ft | 403 kts | 307° |
| 2026-05-09 10:07 | 1.35463 | 104.44936 | 24076 ft | 406 kts | 307° |
| 2026-05-09 10:07 | 1.37162 | 104.42663 | 23336 ft | 409 kts | 307° |
| 2026-05-09 10:07 | 1.38870 | 104.40378 | 22597 ft | 411 kts | 307° |
| 2026-05-09 10:08 | 1.40584 | 104.38083 | 21843 ft | 413 kts | 307° |
| 2026-05-09 10:08 | 1.42305 | 104.35781 | 21105 ft | 414 kts | 307° |
| 2026-05-09 10:08 | 1.44009 | 104.33500 | 20363 ft | 415 kts | 307° |
| 2026-05-09 10:08 | 1.45758 | 104.31160 | 19612 ft | 415 kts | 307° |
| 2026-05-09 10:09 | 1.47460 | 104.28882 | 18874 ft | 414 kts | 307° |
| 2026-05-09 10:09 | 1.49184 | 104.26576 | 18131 ft | 414 kts | 306° |
| 2026-05-09 10:09 | 1.50902 | 104.24275 | 17378 ft | 412 kts | 306° |
| 2026-05-09 10:09 | 1.52614 | 104.21982 | 16627 ft | 408 kts | 306° |
| 2026-05-09 10:10 | 1.54288 | 104.19742 | 15876 ft | 396 kts | 306° |
| 2026-05-09 10:10 | 1.55892 | 104.17595 | 15629 ft | 374 kts | 306° |
| 2026-05-09 10:10 | 1.57406 | 104.15569 | 15183 ft | 359 kts | 306° |
| 2026-05-09 10:10 | 1.58897 | 104.13573 | 14414 ft | 356 kts | 306° |
| 2026-05-09 10:11 | 1.60374 | 104.11596 | 13620 ft | 354 kts | 306° |
| 2026-05-09 10:11 | 1.61840 | 104.09633 | 12828 ft | 352 kts | 306° |
| 2026-05-09 10:11 | 1.63299 | 104.07679 | 12028 ft | 349 kts | 306° |
| 2026-05-09 10:11 | 1.64412 | 104.05552 | 11211 ft | 347 kts | 285° |
| 2026-05-09 10:12 | 1.64648 | 104.03179 | 10421 ft | 343 kts | 264° |
| 2026-05-09 10:12 | 1.64018 | 104.00903 | 9625 ft | 341 kts | 243° |
| 2026-05-09 10:12 | 1.62631 | 103.99007 | 8831 ft | 338 kts | 223° |
| 2026-05-09 10:12 | 1.60678 | 103.97731 | 8031 ft | 336 kts | 202° |
| 2026-05-09 10:13 | 1.58424 | 103.97215 | 7247 ft | 334 kts | 184° |
| 2026-05-09 10:13 | 1.56122 | 103.97447 | 6445 ft | 332 kts | 165° |
| 2026-05-09 10:13 | 1.53926 | 103.98123 | 5654 ft | 329 kts | 162° |
| 2026-05-09 10:13 | 1.51765 | 103.98854 | 4870 ft | 327 kts | 161° |
| 2026-05-09 10:14 | 1.49654 | 103.99571 | 4525 ft | 311 kts | 162° |
| 2026-05-09 10:14 | 1.47649 | 104.00239 | 4383 ft | 300 kts | 162° |
| 2026-05-09 10:14 | 1.45671 | 104.00887 | 4259 ft | 298 kts | 162° |
| 2026-05-09 10:14 | 1.43700 | 104.01526 | 4204 ft | 297 kts | 162° |
| 2026-05-09 10:15 | 1.41736 | 104.02162 | 4199 ft | 297 kts | 162° |
| 2026-05-09 10:15 | 1.39953 | 104.03081 | 4179 ft | 283 kts | 138° |
| 2026-05-09 10:15 | 1.38781 | 104.04591 | 4190 ft | 273 kts | 116° |
| 2026-05-09 10:15 | 1.38051 | 104.06323 | 4197 ft | 268 kts | 111° |
| 2026-05-09 10:16 | 1.37394 | 104.08055 | 4190 ft | 266 kts | 110° |
| 2026-05-09 10:16 | 1.36744 | 104.09788 | 4199 ft | 267 kts | 110° |
| 2026-05-09 10:16 | 1.36089 | 104.11524 | 4203 ft | 268 kts | 111° |
| 2026-05-09 10:16 | 1.35427 | 104.13269 | 4199 ft | 269 kts | 111° |
| 2026-05-09 10:17 | 1.34758 | 104.15017 | 4002 ft | 271 kts | 111° |
| 2026-05-09 10:17 | 1.34086 | 104.16768 | 3753 ft | 268 kts | 111° |
| 2026-05-09 10:17 | 1.33431 | 104.18471 | 3504 ft | 265 kts | 111° |
| 2026-05-09 10:17 | 1.32773 | 104.20178 | 3251 ft | 262 kts | 111° |
| 2026-05-09 10:18 | 1.32122 | 104.21865 | 2999 ft | 259 kts | 111° |
| 2026-05-09 10:18 | 1.31476 | 104.23537 | 2777 ft | 256 kts | 111° |
| 2026-05-09 10:18 | 1.30848 | 104.25165 | 2702 ft | 246 kts | 111° |
| 2026-05-09 10:18 | 1.30082 | 104.26633 | 2666 ft | 233 kts | 136° |
| 2026-05-09 10:19 | 1.28695 | 104.27278 | 2683 ft | 219 kts | 180° |
| 2026-05-09 10:19 | 1.27302 | 104.26803 | 2695 ft | 214 kts | 221° |
| 2026-05-09 10:19 | 1.26213 | 104.25777 | 2698 ft | 218 kts | 228° |
| 2026-05-09 10:19 | 1.25391 | 104.24507 | 2707 ft | 219 kts | 239° |
| 2026-05-09 10:20 | 1.24491 | 104.23273 | 2697 ft | 221 kts | 229° |
| 2026-05-09 10:20 | 1.23453 | 104.22166 | 2713 ft | 213 kts | 225° |
| 2026-05-09 10:20 | 1.22413 | 104.21178 | 2638 ft | 201 kts | 223° |
| 2026-05-09 10:20 | 1.21384 | 104.20252 | 2383 ft | 197 kts | 222° |
| 2026-05-09 10:21 | 1.20385 | 104.19344 | 2112 ft | 189 kts | 223° |
| 2026-05-09 10:21 | 1.19436 | 104.18478 | 1843 ft | 180 kts | 223° |
| 2026-05-09 10:21 | 1.18561 | 104.17624 | 1650 ft | 174 kts | 224° |
| 2026-05-09 10:21 | 1.17679 | 104.16818 | 1416 ft | 167 kts | 222° |
| 2026-05-09 10:22 | 1.16842 | 104.16076 | 1227 ft | 153 kts | 222° |
| 2026-05-09 10:22 | 1.16091 | 104.15401 | 988 ft | 146 kts | 222° |
| 2026-05-09 10:22 | 1.15348 | 104.14754 | 733 ft | 138 kts | 221° |
| 2026-05-09 10:22 | 1.14630 | 104.14107 | 429 ft | 136 kts | 223° |
| 2026-05-09 10:23 | 1.13924 | 104.13478 | 233 ft | 136 kts | 222° |
| 2026-05-09 10:23 | 1.13221 | 104.12864 | 109 ft | 131 kts | 221° |
| 2026-05-09 10:23 | 1.12578 | 104.12304 | 95 ft | 113 kts | 221° |
| 2026-05-09 10:23 | 1.12101 | 104.11883 | 105 ft | 70 kts | 221° |
| 2026-05-09 10:24 | 1.11844 | 104.11656 | 109 ft | 37 kts | 221° |
| 2026-05-09 10:24 | 1.11662 | 104.11494 | 114 ft | 32 kts | 223° |
| 2026-05-09 10:24 | 1.11542 | 104.11322 | 115 ft | 29 kts | 245° |
| 2026-05-09 10:24 | 1.11512 | 104.11245 | 119 ft | 0 kts | 251° |
| 2026-05-09 10:25 | 1.11501 | 104.11209 | 118 ft | 10 kts | 257° |
| 2026-05-09 10:25 | 1.11525 | 104.11175 | 118 ft | 7 kts | 11° |
| 2026-05-09 10:26 | 1.11598 | 104.11220 | 117 ft | 18 kts | 41° |
| 2026-05-09 10:26 | 1.11721 | 104.11329 | 115 ft | 29 kts | 41° |
| 2026-05-09 10:26 | 1.11877 | 104.11466 | 113 ft | 26 kts | 41° |
| 2026-05-09 10:26 | 1.12003 | 104.11577 | 110 ft | 19 kts | 44° |
| 2026-05-09 10:27 | 1.12092 | 104.11601 | 109 ft | 13 kts | 343° |
| 2026-05-09 10:27 | 1.12174 | 104.11598 | 108 ft | 10 kts | 330° |
| 2026-05-09 10:27 | 1.12220 | 104.11554 | 108 ft | 3 kts | 310° |
| 2026-05-09 10:28 | 1.12221 | 104.11552 | 108 ft | 0 kts | 313° |